Time;durP1;ratioP1;P1;durP2;ratioP2;P2;SDS_P1;SDS_P2;PMS_P1;PMS_P2;Temp;Humidity;BMP_temperature;BMP_pressure;BME280_temperature;BME280_humidity;BME280_pressure;Samples;Min_cycle;Max_cycle;Signal;HPM_P1;HPM_P2
2023/01/24 00:02:25;;;;;;;9.70;7.20;;;7.50;70.10;7.30;97628.00;;;;5070595;28;20223;-79
2023/01/24 00:04:52;;;;;;;10.43;7.73;;;7.50;70.10;7.20;97626.00;;;;5058550;28;20660;-80
2023/01/24 00:07:19;;;;;;;9.63;7.47;;;7.50;70.20;7.20;97633.00;;;;5054033;28;20291;-79
2023/01/24 00:09:48;;;;;;;9.63;7.67;;;7.50;70.20;7.30;97634.00;;;;5051220;28;20193;-78
2023/01/24 00:12:15;;;;;;;10.03;7.43;;;7.50;70.20;7.20;97643.00;;;;5052176;28;20299;-79
2023/01/24 00:14:42;;;;;;;10.37;7.83;;;7.40;70.20;7.20;97633.00;;;;5067119;28;20200;-78
2023/01/24 00:17:09;;;;;;;10.43;7.87;;;7.40;70.10;7.20;97642.00;;;;5053504;28;20260;-79
2023/01/24 00:19:36;;;;;;;10.80;8.03;;;7.40;70.10;7.20;97638.00;;;;5054534;28;20930;-79
2023/01/24 00:22:04;;;;;;;10.63;7.90;;;7.40;70.20;7.20;97642.00;;;;5057558;28;20258;-79
2023/01/24 00:24:32;;;;;;;12.40;8.73;;;7.40;70.30;7.20;97646.00;;;;5049932;28;20228;-78
2023/01/24 00:27:01;;;;;;;10.40;7.50;;;7.50;70.50;7.20;97638.00;;;;5079187;28;20237;-79
2023/01/24 00:29:28;;;;;;;10.87;7.83;;;7.50;70.50;7.20;97633.00;;;;5079872;28;20231;-79
2023/01/24 00:31:56;;;;;;;10.13;7.50;;;7.40;70.50;7.20;97630.00;;;;5080010;28;20212;-79
2023/01/24 00:34:23;;;;;;;10.80;8.27;;;7.40;70.60;7.20;97637.00;;;;5065669;28;20263;-78
2023/01/24 00:36:50;;;;;;;10.47;8.07;;;7.50;70.70;7.20;97635.00;;;;5059139;28;20239;-79
2023/01/24 00:39:17;;;;;;;10.53;8.07;;;7.40;70.90;7.30;97636.00;;;;5061995;28;20259;-77
2023/01/24 00:41:44;;;;;;;9.13;7.60;;;7.40;70.90;7.30;97640.00;;;;5057715;28;20212;-80
2023/01/24 00:44:13;;;;;;;11.00;8.67;;;7.40;71.00;7.30;97642.00;;;;5062410;28;20228;-79
2023/01/24 00:46:40;;;;;;;10.57;8.00;;;7.50;71.10;7.30;97647.00;;;;5056291;28;20227;-79
2023/01/24 00:49:08;;;;;;;10.80;8.27;;;7.50;71.10;7.30;97648.00;;;;5067424;28;20266;-77
2023/01/24 00:51:35;;;;;;;9.67;7.87;;;7.50;71.10;7.30;97652.00;;;;5067972;28;20263;-79
2023/01/24 00:54:02;;;;;;;11.47;8.40;;;7.50;71.10;7.30;97654.00;;;;5053717;28;20274;-78
2023/01/24 00:56:29;;;;;;;10.80;8.27;;;7.50;71.10;7.30;97651.00;;;;5053929;28;20242;-79
2023/01/24 00:58:57;;;;;;;10.23;7.73;;;7.50;71.10;7.30;97655.00;;;;5054289;28;20684;-77
2023/01/24 01:01:25;;;;;;;10.67;7.73;;;7.50;71.10;7.30;97658.00;;;;5062993;28;20865;-78
2023/01/24 01:03:56;;;;;;;10.10;8.43;;;7.50;71.10;7.30;97647.00;;;;5052642;28;20272;-79
2023/01/24 01:06:25;;;;;;;10.20;7.70;;;7.50;71.10;7.30;97662.00;;;;5051466;28;20771;-78
2023/01/24 01:08:52;;;;;;;11.37;7.87;;;7.50;71.00;7.30;97663.00;;;;5051403;28;20291;-77
2023/01/24 01:11:21;;;;;;;9.53;7.67;;;7.50;71.00;7.30;97664.00;;;;5036812;28;20304;-79
2023/01/24 01:13:48;;;;;;;11.93;8.50;;;7.50;71.00;7.30;97655.00;;;;5056683;28;20192;-78
2023/01/24 01:16:19;;;;;;;11.40;8.13;;;7.50;71.00;7.30;97661.00;;;;5076481;28;20458;-78
2023/01/24 01:18:49;;;;;;;12.13;8.10;;;7.50;71.00;7.30;97663.00;;;;5078027;28;20570;-79
2023/01/24 01:21:20;;;;;;;11.23;8.53;;;7.50;71.10;7.30;97659.00;;;;5076448;28;20258;-78
2023/01/24 01:23:48;;;;;;;11.00;8.03;;;7.50;71.00;7.30;97658.00;;;;5077621;28;20215;-78
2023/01/24 01:26:19;;;;;;;10.63;7.80;;;7.50;71.10;7.30;97658.00;;;;5059924;28;20219;-79
2023/01/24 01:28:47;;;;;;;9.23;7.50;;;7.50;71.10;7.30;97663.00;;;;5058789;28;20532;-80
2023/01/24 01:31:16;;;;;;;10.73;8.13;;;7.50;71.10;7.30;97665.00;;;;5055848;28;20228;-79
2023/01/24 01:33:45;;;;;;;10.70;8.07;;;7.50;71.10;7.30;97658.00;;;;5053806;28;20258;-78
2023/01/24 01:36:13;;;;;;;12.87;8.97;;;7.50;71.20;7.30;97667.00;;;;5035889;28;20205;-78
2023/01/24 01:38:40;;;;;;;12.07;8.60;;;7.50;71.20;7.30;97661.00;;;;5054117;28;20624;-78
2023/01/24 01:41:08;;;;;;;12.53;8.53;;;7.50;71.20;7.30;97661.00;;;;5056860;28;20251;-79
2023/01/24 01:44:37;;;;;;;10.30;8.40;;;7.50;71.20;7.20;97663.00;;;;5056248;28;20231;-79
2023/01/24 01:46:31;;;;;;;10.20;7.53;;;7.50;71.20;7.20;97653.00;;;;5064769;28;20185;-78
2023/01/24 01:49:03;;;;;;;11.10;8.17;;;7.50;71.10;7.20;97660.00;;;;5056246;28;20250;-79
2023/01/24 01:51:45;;;;;;;9.23;7.37;;;7.40;71.10;7.20;97666.00;;;;5056847;28;20224;-79
2023/01/24 01:54:19;;;;;;;10.73;7.97;;;7.40;71.10;7.10;97657.00;;;;5035125;28;20627;-79
2023/01/24 01:56:53;;;;;;;12.00;8.33;;;7.40;71.10;7.10;97659.00;;;;5032772;28;20224;-79
2023/01/24 01:59:26;;;;;;;10.57;7.90;;;7.40;71.10;7.10;97661.00;;;;5032458;28;20268;-80
2023/01/24 02:01:57;;;;;;;11.87;7.60;;;7.40;71.10;7.10;97660.00;;;;5044508;28;20247;-78
2023/01/24 02:04:30;;;;;;;10.00;7.53;;;7.40;71.10;7.10;97670.00;;;;5055612;28;20204;-80
2023/01/24 02:07:05;;;;;;;11.63;7.80;;;7.40;71.20;7.10;97663.00;;;;5058362;28;20227;-80
2023/01/24 02:09:38;;;;;;;8.57;7.30;;;7.40;71.20;7.10;97658.00;;;;5058351;28;20203;-78
2023/01/24 02:12:12;;;;;;;10.10;7.70;;;7.40;71.20;7.10;97660.00;;;;5056241;28;20239;-79
2023/01/24 02:17:26;;;;;;;10.20;7.43;;;7.30;71.20;7.10;97656.00;;;;5055427;28;20297;-79
2023/01/24 02:20:13;;;;;;;9.90;7.60;;;7.30;71.20;7.10;97655.00;;;;5055597;28;20212;-79
2023/01/24 02:22:57;;;;;;;9.47;7.40;;;7.40;71.40;7.10;97664.00;;;;5054352;28;20250;-79
2023/01/24 02:25:35;;;;;;;10.27;7.43;;;7.40;71.30;7.10;97658.00;;;;5054432;28;20706;-79
2023/01/24 02:28:07;;;;;;;12.37;8.47;;;7.40;71.30;7.10;97659.00;;;;5056003;28;20390;-78
2023/01/24 02:30:35;;;;;;;9.90;7.40;;;7.30;71.20;7.10;97661.00;;;;5055580;28;20221;-80
2023/01/24 02:33:11;;;;;;;10.27;7.90;;;7.30;71.20;7.00;97662.00;;;;5067278;28;20231;-79
2023/01/24 02:35:38;;;;;;;10.63;8.07;;;7.30;71.20;7.00;97652.00;;;;5075069;28;20596;-79
2023/01/24 02:38:16;;;;;;;12.10;7.27;;;7.30;71.10;7.00;97650.00;;;;5074726;28;20224;-79
2023/01/24 02:40:43;;;;;;;10.43;7.70;;;7.30;71.10;7.00;97651.00;;;;5074844;28;20208;-77
2023/01/24 02:43:16;;;;;;;10.73;7.27;;;7.30;71.90;7.00;97656.00;;;;5075582;28;20219;-79
2023/01/24 02:45:43;;;;;;;10.90;7.70;;;7.30;71.30;7.10;97658.00;;;;5069968;28;20203;-79
2023/01/24 02:48:11;;;;;;;9.87;7.43;;;7.30;71.30;7.00;97662.00;;;;5060757;28;20608;-78
2023/01/24 02:53:32;;;;;;;11.63;7.43;;;7.30;71.10;7.00;97652.00;;;;5042552;28;20229;-79
2023/01/24 02:58:47;;;;;;;9.83;7.20;;;7.30;71.10;7.00;97659.00;;;;5033231;28;20219;-78
2023/01/24 03:01:15;;;;;;;10.70;7.83;;;7.30;71.20;7.00;97660.00;;;;5033391;28;20230;-79
2023/01/24 03:03:43;;;;;;;10.13;6.90;;;7.20;71.20;7.00;97657.00;;;;5033274;28;20201;-79
2023/01/24 03:06:12;;;;;;;10.90;8.03;;;7.30;71.20;7.00;97659.00;;;;5065331;28;20196;-79
2023/01/24 03:08:40;;;;;;;10.53;7.13;;;7.30;71.20;7.00;97657.00;;;;5074552;28;20234;-78
2023/01/24 03:11:08;;;;;;;10.63;7.63;;;7.20;71.10;7.00;97659.00;;;;5055520;28;20252;-79
2023/01/24 03:35:53;;;;;;;9.60;6.97;;;7.30;71.40;7.10;97668.00;;;;5055271;28;20208;-79
2023/01/24 03:41:07;;;;;;;9.27;7.43;;;7.30;71.30;7.10;97669.00;;;;5044883;28;20263;-78
2023/01/24 03:43:34;;;;;;;10.40;6.83;;;7.30;71.20;7.10;97675.00;;;;5052358;28;20226;-80
2023/01/24 03:46:01;;;;;;;9.60;7.07;;;7.30;71.10;7.10;97681.00;;;;5048197;28;20250;-78
2023/01/24 03:48:36;;;;;;;10.03;7.30;;;7.30;71.10;7.10;97682.00;;;;5047648;28;20227;-78
2023/01/24 03:53:48;;;;;;;10.17;7.53;;;7.30;71.20;7.10;97681.00;;;;5051120;28;20242;-79
2023/01/24 03:56:16;;;;;;;9.60;6.73;;;7.30;71.30;7.10;97683.00;;;;5053150;28;20220;-79
2023/01/24 03:58:43;;;;;;;10.23;7.40;;;7.30;71.30;7.10;97679.00;;;;5062128;28;20228;-79
2023/01/24 04:01:10;;;;;;;10.20;6.97;;;7.40;71.30;7.10;97680.00;;;;5057755;28;20754;-80
2023/01/24 04:03:38;;;;;;;9.40;7.23;;;7.30;71.20;7.10;97685.00;;;;5057661;28;20224;-79
2023/01/24 04:06:06;;;;;;;7.57;6.27;;;7.40;71.20;7.10;97688.00;;;;5057810;28;20310;-79
2023/01/24 04:08:34;;;;;;;9.20;6.70;;;7.40;71.20;7.20;97687.00;;;;5057579;28;20642;-77
2023/01/24 04:11:01;;;;;;;8.30;6.87;;;7.40;71.30;7.10;97695.00;;;;5040509;28;20643;-79
2023/01/24 04:13:28;;;;;;;10.37;8.07;;;7.40;71.30;7.20;97699.00;;;;5043610;28;20593;-79
2023/01/24 04:15:55;;;;;;;10.30;7.43;;;7.40;71.40;7.20;97688.00;;;;5056457;28;20271;-79
2023/01/24 04:18:22;;;;;;;8.83;7.50;;;7.40;71.30;7.20;97685.00;;;;5064137;28;20252;-77
2023/01/24 04:20:51;;;;;;;8.97;7.27;;;7.40;71.20;7.20;97688.00;;;;5070549;28;20688;-78
2023/01/24 04:23:18;;;;;;;10.23;7.10;;;7.30;71.10;7.20;97689.00;;;;5057775;28;20250;-79
2023/01/24 04:25:54;;;;;;;10.10;7.57;;;7.40;71.10;7.20;97690.00;;;;5055172;28;20201;-77
2023/01/24 04:28:22;;;;;;;9.20;7.17;;;7.40;71.10;7.20;97685.00;;;;5058399;28;20203;-79
2023/01/24 04:30:49;;;;;;;7.63;6.50;;;7.40;71.10;7.20;97687.00;;;;5055111;28;20204;-79
2023/01/24 04:33:16;;;;;;;10.20;7.10;;;7.40;71.10;7.20;97679.00;;;;5060810;28;20275;-78
2023/01/24 04:35:44;;;;;;;8.13;6.90;;;7.40;71.10;7.20;97681.00;;;;5048083;28;20201;-79
2023/01/24 04:38:12;;;;;;;7.90;6.30;;;7.40;71.10;7.20;97683.00;;;;5055710;28;20612;-78
2023/01/24 04:40:40;;;;;;;8.83;7.00;;;7.40;71.10;7.20;97679.00;;;;5057238;28;20283;-78
2023/01/24 04:43:07;;;;;;;8.73;6.90;;;7.50;71.20;7.20;97681.00;;;;5055815;28;20197;-77
2023/01/24 04:45:34;;;;;;;9.80;7.33;;;7.50;71.20;7.20;97687.00;;;;5056493;28;20258;-79
2023/01/24 04:48:02;;;;;;;8.17;6.20;;;7.50;71.10;7.20;97675.00;;;;5056229;28;20197;-79
2023/01/24 04:50:29;;;;;;;9.57;6.77;;;7.50;71.10;7.20;97679.00;;;;5055746;28;20255;-78
2023/01/24 04:52:56;;;;;;;8.27;6.60;;;7.40;71.00;7.20;97683.00;;;;5075001;28;20947;-80
2023/01/24 04:55:24;;;;;;;8.00;6.07;;;7.50;71.10;7.20;97685.00;;;;5077752;28;20276;-79
2023/01/24 04:57:52;;;;;;;8.90;7.20;;;7.50;71.00;7.20;97690.00;;;;5060910;28;20223;-79
2023/01/24 05:00:20;;;;;;;9.60;7.30;;;7.40;71.10;7.20;97688.00;;;;5059198;28;20188;-78
2023/01/24 05:02:47;;;;;;;7.37;6.53;;;7.40;71.10;7.30;97693.00;;;;5057876;28;20268;-79
2023/01/24 05:05:14;;;;;;;8.10;6.30;;;7.50;71.10;7.30;97690.00;;;;5057668;28;20250;-79
2023/01/24 05:07:41;;;;;;;7.87;6.60;;;7.50;71.20;7.30;97697.00;;;;5079901;28;20204;-80
2023/01/24 05:10:10;;;;;;;9.07;6.23;;;7.50;71.20;7.30;97693.00;;;;5078318;28;20249;-79
2023/01/24 05:12:39;;;;;;;9.50;6.70;;;7.50;71.10;7.30;97695.00;;;;5058288;28;20251;-77
2023/01/24 05:15:08;;;;;;;7.60;6.37;;;7.50;71.00;7.30;97705.00;;;;5057359;28;20205;-78
2023/01/24 05:17:35;;;;;;;8.70;6.70;;;7.50;71.10;7.30;97694.00;;;;5057874;28;20250;-80
2023/01/24 05:20:02;;;;;;;10.00;6.50;;;7.50;71.00;7.30;97697.00;;;;5057894;28;20212;-80
2023/01/24 05:22:30;;;;;;;8.40;6.03;;;7.50;71.00;7.30;97695.00;;;;5056899;28;20221;-79
2023/01/24 05:25:02;;;;;;;11.83;6.60;;;7.50;71.00;7.30;97692.00;;;;5056753;28;20237;-79
2023/01/24 05:27:30;;;;;;;9.67;6.80;;;7.50;71.00;7.30;97691.00;;;;5056929;28;20845;-80
2023/01/24 05:29:58;;;;;;;10.40;6.97;;;7.50;71.00;7.30;97697.00;;;;5057591;28;20542;-79
2023/01/24 05:32:25;;;;;;;8.60;6.83;;;7.50;71.10;7.30;97686.00;;;;5056720;28;20243;-77
2023/01/24 05:34:52;;;;;;;7.97;6.10;;;7.50;71.10;7.30;97683.00;;;;5062229;28;20266;-79
2023/01/24 05:37:20;;;;;;;8.83;6.03;;;7.50;71.10;7.30;97692.00;;;;5050237;28;20197;-78
2023/01/24 05:39:47;;;;;;;7.57;5.90;;;7.50;71.10;7.30;97689.00;;;;5055014;28;20248;-78
2023/01/24 05:42:14;;;;;;;7.37;6.00;;;7.50;71.00;7.30;97698.00;;;;5053833;28;20216;-78
2023/01/24 05:44:42;;;;;;;9.13;6.23;;;7.50;71.00;7.30;97699.00;;;;5055702;28;20710;-77
2023/01/24 05:47:10;;;;;;;7.90;6.03;;;7.50;70.90;7.30;97703.00;;;;5052337;28;20220;-77
2023/01/24 05:49:37;;;;;;;7.70;6.57;;;7.50;71.00;7.30;97692.00;;;;5050522;28;20212;-78
2023/01/24 05:52:05;;;;;;;7.93;5.70;;;7.50;71.00;7.30;97701.00;;;;5059375;28;20216;-77
2023/01/24 05:54:32;;;;;;;8.40;6.40;;;7.50;71.00;7.40;97722.00;;;;5058865;28;20196;-79
2023/01/24 05:57:00;;;;;;;9.70;6.50;;;7.50;71.00;7.40;97716.00;;;;5053641;28;20295;-80
2023/01/24 05:59:27;;;;;;;7.77;5.83;;;7.50;71.10;7.40;97721.00;;;;5051580;28;20244;-77
2023/01/24 06:02:27;;;;;;;8.10;6.20;;;7.60;71.10;7.40;97718.00;;;;5052746;28;20642;-77
2023/01/24 06:04:55;;;;;;;7.67;5.97;;;7.60;71.10;7.40;97725.00;;;;5058190;28;20198;-79
2023/01/24 06:07:23;;;;;;;6.40;5.47;;;7.60;71.00;7.40;97717.00;;;;5057161;28;20284;-79
2023/01/24 06:09:59;;;;;;;8.17;6.47;;;7.60;71.00;7.40;97734.00;;;;5045227;28;20726;-79
2023/01/24 06:12:31;;;;;;;7.40;5.97;;;7.60;70.90;7.40;97728.00;;;;5055615;28;20224;-78
2023/01/24 06:14:58;;;;;;;6.60;5.87;;;7.60;70.90;7.40;97726.00;;;;5042323;28;20314;-79
2023/01/24 06:17:26;;;;;;;7.87;6.07;;;7.60;70.80;7.40;97726.00;;;;5047007;28;20251;-79
2023/01/24 06:19:58;;;;;;;6.93;6.03;;;7.60;70.80;7.30;97734.00;;;;5055079;28;20251;-79
2023/01/24 06:22:39;;;;;;;8.00;5.77;;;7.60;70.80;7.30;97721.00;;;;5053773;28;20642;-79
2023/01/24 06:25:34;;;;;;;7.70;5.47;;;7.60;70.80;7.30;97729.00;;;;5057396;28;20196;-80
2023/01/24 06:28:15;;;;;;;7.37;5.77;;;7.60;70.70;7.30;97735.00;;;;5047312;28;20622;-81
2023/01/24 06:30:50;;;;;;;7.13;5.63;;;7.50;70.60;7.30;97743.00;;;;5049178;28;20228;-79
2023/01/24 06:33:39;;;;;;;8.27;6.00;;;7.50;70.70;7.30;97748.00;;;;5046956;28;20292;-80
2023/01/24 06:36:47;;;;;;;6.10;4.93;;;7.50;70.90;7.30;97759.00;;;;5040931;28;20215;-79
2023/01/24 06:39:26;;;;;;;7.67;6.00;;;7.50;70.90;7.40;97755.00;;;;5049560;28;20212;-80
2023/01/24 06:41:56;;;;;;;6.23;5.30;;;7.50;70.80;7.40;97749.00;;;;5051391;28;20603;-80
2023/01/24 06:44:27;;;;;;;7.33;5.67;;;7.50;70.70;7.50;97762.00;;;;5050733;28;20286;-80
2023/01/24 06:47:00;;;;;;;7.93;6.03;;;7.60;70.80;7.50;97759.00;;;;5050416;28;20205;-80
2023/01/24 06:49:31;;;;;;;6.90;5.73;;;7.60;70.80;7.50;97752.00;;;;5053573;28;20197;-80
2023/01/24 06:52:06;;;;;;;7.37;5.60;;;7.60;70.80;7.60;97756.00;;;;5053809;28;20238;-80
2023/01/24 06:54:37;;;;;;;7.10;5.57;;;7.60;70.90;7.60;97755.00;;;;5053437;28;20307;-80
2023/01/24 06:57:10;;;;;;;6.30;5.13;;;7.60;70.80;7.60;97760.00;;;;5048940;28;20270;-81
2023/01/24 06:59:45;;;;;;;7.17;5.17;;;7.60;70.80;7.60;97767.00;;;;5054087;28;20229;-80
2023/01/24 07:02:15;;;;;;;8.13;5.67;;;7.60;70.80;7.60;97761.00;;;;5054488;28;20625;-81
2023/01/24 07:04:46;;;;;;;7.53;5.20;;;7.60;70.80;7.60;97767.00;;;;5055117;28;20251;-81
2023/01/24 07:07:13;;;;;;;5.77;4.80;;;7.60;70.90;7.60;97768.00;;;;5053686;28;20196;-80
2023/01/24 07:09:43;;;;;;;7.43;5.43;;;7.60;70.80;7.60;97780.00;;;;5054371;28;20266;-81
2023/01/24 07:12:15;;;;;;;6.97;5.33;;;7.70;70.80;7.70;97780.00;;;;5053187;28;20233;-80
2023/01/24 07:14:43;;;;;;;6.90;5.47;;;7.70;70.90;7.70;97780.00;;;;5053921;28;20715;-80
2023/01/24 07:17:18;;;;;;;5.53;4.90;;;7.70;70.80;7.70;97778.00;;;;5043328;28;20189;-79
2023/01/24 07:19:50;;;;;;;7.50;5.53;;;7.70;70.70;7.70;97782.00;;;;5049979;28;20227;-80
2023/01/24 07:22:29;;;;;;;5.50;5.00;;;7.70;70.60;7.70;97782.00;;;;5054272;28;20312;-80
2023/01/24 07:25:00;;;;;;;6.50;5.00;;;7.70;70.50;7.70;97783.00;;;;5055654;28;20860;-80
2023/01/24 07:27:31;;;;;;;6.70;4.87;;;7.70;70.50;7.70;97782.00;;;;5041706;28;20221;-79
2023/01/24 07:30:05;;;;;;;5.50;4.43;;;7.70;70.50;7.70;97789.00;;;;5042473;28;20250;-80
2023/01/24 07:32:35;;;;;;;6.37;4.50;;;7.70;70.50;7.70;97789.00;;;;5045179;28;20247;-80
2023/01/24 07:35:08;;;;;;;5.77;4.70;;;7.70;70.50;7.70;97786.00;;;;5051761;28;20215;-79
2023/01/24 07:37:43;;;;;;;6.80;4.80;;;7.70;70.50;7.70;97794.00;;;;5047022;28;20193;-80
2023/01/24 07:40:15;;;;;;;5.20;4.70;;;7.80;70.50;7.70;97795.00;;;;5044854;28;20222;-78
2023/01/24 07:42:47;;;;;;;5.77;5.10;;;7.80;70.60;7.70;97804.00;;;;5048729;28;20200;-80
2023/01/24 07:45:20;;;;;;;6.00;4.90;;;7.80;70.50;7.70;97801.00;;;;5050747;28;20211;-80
2023/01/24 07:47:56;;;;;;;5.53;4.83;;;7.80;70.40;7.70;97804.00;;;;5045731;28;20195;-80
2023/01/24 07:50:25;;;;;;;5.57;4.73;;;7.80;70.40;7.70;97807.00;;;;5044443;28;20574;-79
2023/01/24 07:53:00;;;;;;;6.27;5.23;;;7.80;70.40;7.70;97812.00;;;;5045536;28;20284;-80
2023/01/24 07:55:28;;;;;;;5.37;4.83;;;7.80;70.40;7.70;97811.00;;;;5046141;28;20192;-80
2023/01/24 07:58:03;;;;;;;8.27;6.20;;;7.80;70.40;7.70;97817.00;;;;5050431;28;20255;-80
2023/01/24 08:00:32;;;;;;;5.10;4.37;;;7.80;70.40;7.70;97814.00;;;;5053584;28;20285;-81
2023/01/24 08:03:04;;;;;;;5.70;5.00;;;7.80;70.40;7.70;97821.00;;;;5054254;28;20559;-80
2023/01/24 08:05:33;;;;;;;5.63;4.70;;;7.80;70.30;7.70;97826.00;;;;5051628;28;20205;-81
2023/01/24 08:08:00;;;;;;;5.47;4.90;;;7.80;70.30;7.70;97820.00;;;;5045727;28;20612;-80
2023/01/24 08:10:29;;;;;;;5.50;4.80;;;7.80;70.40;7.70;97826.00;;;;5049991;28;20197;-80
2023/01/24 08:12:57;;;;;;;5.60;4.77;;;7.80;70.40;7.70;97834.00;;;;5053935;28;20201;-80
2023/01/24 08:15:27;;;;;;;5.67;4.87;;;7.80;70.40;7.70;97831.00;;;;5050989;28;20413;-80
2023/01/24 08:17:56;;;;;;;4.80;4.27;;;7.80;70.30;7.70;97829.00;;;;5054383;28;20235;-80
2023/01/24 08:20:29;;;;;;;6.30;4.37;;;7.80;70.20;7.70;97831.00;;;;5053925;28;21050;-80
2023/01/24 08:22:59;;;;;;;5.50;4.00;;;7.80;70.20;7.70;97840.00;;;;5054114;28;20185;-81
2023/01/24 08:25:31;;;;;;;5.57;4.53;;;7.80;70.40;7.70;97837.00;;;;5045208;28;20220;-80
2023/01/24 08:27:58;;;;;;;5.17;4.60;;;7.80;71.20;7.70;97839.00;;;;5042206;28;20189;-80
2023/01/24 08:30:26;;;;;;;5.10;4.30;;;7.80;70.50;7.70;97841.00;;;;5052880;28;20208;-80
2023/01/24 08:33:01;;;;;;;4.97;4.47;;;7.80;70.40;7.80;97840.00;;;;5052223;28;20244;-80
2023/01/24 08:35:28;;;;;;;6.63;4.60;;;7.80;70.50;7.80;97841.00;;;;5052691;28;20223;-80
2023/01/24 08:38:02;;;;;;;6.17;4.90;;;7.80;70.50;7.80;97839.00;;;;5045930;28;20662;-80
2023/01/24 08:40:29;;;;;;;7.90;5.23;;;7.80;71.20;7.80;97838.00;;;;5048326;28;20328;-80
2023/01/24 08:43:00;;;;;;;6.00;5.13;;;7.80;70.60;7.80;97836.00;;;;5054387;28;20246;-80
2023/01/24 08:45:31;;;;;;;5.90;4.73;;;7.80;70.50;7.80;97834.00;;;;5041969;28;20197;-80
2023/01/24 08:48:06;;;;;;;7.33;5.50;;;7.80;70.40;7.80;97843.00;;;;5041378;28;20704;-80
2023/01/24 08:51:02;;;;;;;5.70;4.93;;;7.90;70.50;7.80;97843.00;;;;5057895;28;20180;-80
2023/01/24 08:53:36;;;;;;;6.07;4.53;;;7.90;70.60;7.90;97844.00;;;;5057975;28;20246;-80
2023/01/24 08:56:07;;;;;;;5.97;4.87;;;7.90;70.60;7.90;97854.00;;;;5053267;28;20212;-81
2023/01/24 08:58:34;;;;;;;6.33;5.13;;;7.90;70.60;7.90;97850.00;;;;5043217;28;20220;-81
2023/01/24 09:01:07;;;;;;;6.73;5.00;;;7.90;70.60;8.00;97844.00;;;;5035980;28;20229;-80
2023/01/24 09:03:34;;;;;;;7.00;5.30;;;8.00;70.70;8.00;97851.00;;;;5051048;28;20221;-80
2023/01/24 09:06:02;;;;;;;8.67;5.47;;;8.00;70.60;8.00;97846.00;;;;5056307;28;20192;-80
2023/01/24 09:08:29;;;;;;;6.30;5.63;;;8.00;70.70;8.00;97848.00;;;;5054645;28;20192;-80
2023/01/24 09:11:00;;;;;;;6.23;5.20;;;8.00;70.70;8.10;97849.00;;;;5045163;28;20225;-78
2023/01/24 09:13:28;;;;;;;8.13;5.67;;;8.10;70.70;8.10;97851.00;;;;5040152;28;20202;-79
2023/01/24 09:15:58;;;;;;;14.60;6.20;;;8.10;70.70;8.10;97843.00;;;;5055462;28;20615;-80
2023/01/24 09:18:26;;;;;;;7.80;6.37;;;8.10;70.80;8.20;97867.00;;;;5045618;28;20816;-80
2023/01/24 09:20:53;;;;;;;9.03;6.37;;;8.20;70.90;8.20;97857.00;;;;5055278;28;20220;-80
2023/01/24 09:23:29;;;;;;;9.57;6.63;;;8.20;70.90;8.30;97855.00;;;;5043583;28;20228;-80
2023/01/24 09:26:05;;;;;;;10.10;6.23;;;8.20;70.80;8.30;97862.00;;;;5038024;28;20184;-79
2023/01/24 09:28:35;;;;;;;9.60;7.03;;;8.30;70.80;8.30;97865.00;;;;5054065;28;20711;-80
2023/01/24 09:31:12;;;;;;;8.53;5.97;;;8.30;70.80;8.30;97865.00;;;;5053369;28;20224;-80
2023/01/24 09:33:40;;;;;;;9.10;6.53;;;8.30;70.70;8.40;97864.00;;;;5054258;28;20207;-78
2023/01/24 09:36:15;;;;;;;8.70;6.10;;;8.30;70.60;8.40;97875.00;;;;5043952;28;20665;-80
2023/01/24 09:38:49;;;;;;;8.33;6.33;;;8.30;70.60;8.40;97866.00;;;;5055474;28;20266;-80
2023/01/24 09:41:48;;;;;;;10.43;6.40;;;8.40;70.50;8.40;97867.00;;;;5054878;28;20701;-80
2023/01/24 09:44:25;;;;;;;7.90;6.40;;;8.40;70.40;8.50;97863.00;;;;5059660;28;20212;-80
2023/01/24 09:47:21;;;;;;;8.43;6.00;;;8.40;70.40;8.50;97874.00;;;;5059256;28;20568;-79
2023/01/24 09:49:56;;;;;;;9.57;6.67;;;8.40;70.50;8.50;97874.00;;;;5045449;28;20575;-80
2023/01/24 09:52:42;;;;;;;9.63;6.90;;;8.50;70.50;8.60;97876.00;;;;5042967;28;20224;-80
2023/01/24 09:55:25;;;;;;;9.20;6.30;;;8.50;70.50;8.60;97880.00;;;;5053957;28;20227;-80
2023/01/24 09:58:04;;;;;;;10.03;6.90;;;8.50;70.40;8.60;97878.00;;;;5039774;28;20201;-80
2023/01/24 10:00:40;;;;;;;11.53;7.43;;;8.60;70.40;8.60;97880.00;;;;5046756;28;20207;-80
2023/01/24 10:03:21;;;;;;;10.17;6.53;;;8.60;70.30;8.60;97876.00;;;;5059221;28;20180;-80
2023/01/24 10:05:57;;;;;;;11.67;6.77;;;8.60;70.30;8.70;97876.00;;;;5058944;28;20250;-80
2023/01/24 10:08:35;;;;;;;12.57;7.23;;;8.60;70.30;8.70;97880.00;;;;5058987;28;20219;-80
2023/01/24 10:11:23;;;;;;;7.97;6.03;;;8.70;70.40;8.70;97879.00;;;;5050073;28;20319;-80
2023/01/24 10:14:22;;;;;;;13.60;6.50;;;8.60;70.20;8.70;97877.00;;;;5054304;28;20197;-79
2023/01/24 10:17:35;;;;;;;9.47;6.40;;;8.70;70.20;8.70;97885.00;;;;5043670;28;20572;-79
2023/01/24 10:20:26;;;;;;;16.97;6.40;;;8.70;70.10;8.70;97873.00;;;;4992341;28;20299;-79
2023/01/24 10:23:09;;;;;;;8.70;6.60;;;8.70;70.10;8.80;97876.00;;;;4988653;28;20196;-79
2023/01/24 10:26:04;;;;;;;8.10;6.03;;;8.70;70.20;8.80;97874.00;;;;5056195;28;20197;-80
2023/01/24 10:28:47;;;;;;;9.27;6.53;;;8.70;70.30;8.90;97870.00;;;;5036450;28;20235;-80
2023/01/24 10:31:20;;;;;;;8.60;6.63;;;8.80;70.40;8.90;97871.00;;;;5039821;28;20219;-80
2023/01/24 10:33:52;;;;;;;7.00;5.83;;;8.80;70.30;8.90;97867.00;;;;5054185;28;20270;-80
2023/01/24 10:36:43;;;;;;;10.67;6.40;;;8.80;70.20;8.90;97869.00;;;;5058794;28;20205;-80
2023/01/24 10:39:11;;;;;;;7.23;5.70;;;8.80;70.10;9.00;97868.00;;;;5058426;28;20197;-80
2023/01/24 10:41:54;;;;;;;6.33;5.03;;;8.90;70.20;9.00;97860.00;;;;5058329;28;20237;-80
2023/01/24 10:44:27;;;;;;;6.17;5.37;;;8.90;70.00;9.00;97867.00;;;;5043706;28;20188;-80
2023/01/24 10:47:46;;;;;;;7.17;5.37;;;8.90;69.90;9.00;97868.00;;;;5057723;28;20660;-79
2023/01/24 10:50:16;;;;;;;5.43;4.83;;;9.00;70.00;9.10;97861.00;;;;5055254;28;20208;-80
2023/01/24 10:52:50;;;;;;;5.40;4.87;;;9.00;70.00;9.10;97856.00;;;;5058171;28;20196;-80
2023/01/24 10:55:38;;;;;;;8.70;5.97;;;9.00;69.90;9.20;97860.00;;;;5054132;28;20188;-80
2023/01/24 10:58:24;;;;;;;11.30;5.27;;;9.10;69.90;9.20;97857.00;;;;5045930;28;20271;-80
2023/01/24 11:01:06;;;;;;;5.87;5.23;;;9.10;69.90;9.30;97859.00;;;;5052962;28;20228;-80
2023/01/24 11:03:39;;;;;;;5.73;4.80;;;9.20;69.90;9.30;97860.00;;;;5056849;28;20209;-80
2023/01/24 11:06:26;;;;;;;5.80;5.20;;;9.20;69.80;9.40;97854.00;;;;5053890;28;20186;-80
2023/01/24 11:09:10;;;;;;;6.77;4.60;;;9.20;69.70;9.40;97856.00;;;;5036822;28;20197;-79
2023/01/24 11:11:48;;;;;;;5.10;4.50;;;9.30;69.60;9.40;97854.00;;;;5045743;28;20680;-80
2023/01/24 11:14:20;;;;;;;5.37;4.73;;;9.30;69.60;9.50;97857.00;;;;5055754;28;20215;-80
2023/01/24 11:17:07;;;;;;;5.23;4.73;;;9.30;69.40;9.50;97853.00;;;;5049150;28;20208;-80
2023/01/24 11:19:41;;;;;;;11.63;4.97;;;9.40;69.20;9.60;97853.00;;;;5054033;28;20213;-79
2023/01/24 11:22:25;;;;;;;5.33;4.83;;;9.40;69.30;9.60;97851.00;;;;5053491;28;20227;-80
2023/01/24 11:24:59;;;;;;;5.13;4.63;;;9.50;69.20;9.70;97852.00;;;;5036658;28;20205;-79
2023/01/24 11:27:26;;;;;;;5.20;4.47;;;9.50;69.10;9.70;97847.00;;;;5051010;28;20223;-79
2023/01/24 11:30:15;;;;;;;5.03;4.30;;;9.50;69.10;9.70;97851.00;;;;5046292;28;20279;-78
2023/01/24 11:33:02;;;;;;;6.43;4.80;;;9.60;69.10;9.70;97841.00;;;;5055887;28;20196;-80
2023/01/24 11:35:35;;;;;;;5.90;4.53;;;9.60;69.10;9.80;97845.00;;;;5053067;28;20216;-79
2023/01/24 11:38:24;;;;;;;4.90;4.43;;;9.60;69.00;9.80;97849.00;;;;5034479;28;20507;-79
2023/01/24 11:41:10;;;;;;;4.30;3.90;;;9.70;68.90;9.80;97844.00;;;;5051425;28;20235;-79
2023/01/24 11:44:10;;;;;;;5.57;4.37;;;9.70;68.70;9.90;97836.00;;;;5054114;28;20220;-78
2023/01/24 11:46:55;;;;;;;7.97;4.67;;;9.70;68.70;9.90;97824.00;;;;5056147;28;20692;-79
2023/01/24 11:50:04;;;;;;;7.53;4.97;;;9.80;68.80;9.90;97836.00;;;;5055463;28;20241;-79
2023/01/24 11:53:04;;;;;;;7.20;4.43;;;9.80;68.80;10.00;97832.00;;;;5052050;28;20217;-79
2023/01/24 11:56:00;;;;;;;5.70;4.33;;;9.80;68.80;10.00;97832.00;;;;5054609;28;20216;-79
2023/01/24 11:59:00;;;;;;;6.10;5.27;;;9.90;68.50;10.00;97835.00;;;;5044917;28;20193;-78
2023/01/24 12:05:29;;;;;;;6.63;3.97;;;9.90;68.30;10.00;97824.00;;;;5029361;28;20261;-79
2023/01/24 12:08:12;;;;;;;6.43;5.00;;;9.90;68.10;10.10;97820.00;;;;5051080;28;20183;-77
2023/01/24 12:11:01;;;;;;;7.67;4.67;;;9.90;68.20;10.10;97825.00;;;;5052370;28;20240;-79
2023/01/24 12:13:43;;;;;;;5.37;4.40;;;10.00;68.30;10.10;97817.00;;;;5052327;28;20197;-78
2023/01/24 12:17:26;;;;;;;5.03;4.53;;;10.00;68.20;10.10;97819.00;;;;5055030;28;20176;-78